sensor_id;sensor_type;location;lat;lon;timestamp;P1;durP1;ratioP1;P2;durP2;ratioP2
71622;SDS011;59473;53.214;5.728;2024-03-25T00:00:27;18.33;;;5.27;;
71622;SDS011;59473;53.214;5.728;2024-03-25T00:02:52;21.30;;;5.13;;
71622;SDS011;59473;53.214;5.728;2024-03-25T00:05:19;21.05;;;5.28;;
71622;SDS011;59473;53.214;5.728;2024-03-25T00:07:48;19.85;;;5.97;;
71622;SDS011;59473;53.214;5.728;2024-03-25T00:10:13;25.23;;;5.57;;
71622;SDS011;59473;53.214;5.728;2024-03-25T00:12:38;18.77;;;5.70;;
71622;SDS011;59473;53.214;5.728;2024-03-25T00:15:04;22.50;;;5.33;;
71622;SDS011;59473;53.214;5.728;2024-03-25T00:17:29;18.05;;;4.82;;
71622;SDS011;59473;53.214;5.728;2024-03-25T00:19:54;20.03;;;4.93;;
71622;SDS011;59473;53.214;5.728;2024-03-25T00:22:20;21.87;;;5.00;;
71622;SDS011;59473;53.214;5.728;2024-03-25T00:24:46;24.52;;;6.97;;
71622;SDS011;59473;53.214;5.728;2024-03-25T00:27:11;15.30;;;4.40;;
71622;SDS011;59473;53.214;5.728;2024-03-25T00:29:37;20.70;;;5.73;;
71622;SDS011;59473;53.214;5.728;2024-03-25T00:32:02;20.97;;;5.70;;
71622;SDS011;59473;53.214;5.728;2024-03-25T00:34:27;22.47;;;4.90;;
71622;SDS011;59473;53.214;5.728;2024-03-25T00:36:52;20.50;;;4.93;;
71622;SDS011;59473;53.214;5.728;2024-03-25T00:39:18;15.60;;;4.20;;
71622;SDS011;59473;53.214;5.728;2024-03-25T00:41:44;21.67;;;5.20;;
71622;SDS011;59473;53.214;5.728;2024-03-25T00:44:09;19.77;;;5.63;;
71622;SDS011;59473;53.214;5.728;2024-03-25T00:46:35;18.48;;;6.28;;
71622;SDS011;59473;53.214;5.728;2024-03-25T00:49:00;13.73;;;4.80;;
71622;SDS011;59473;53.214;5.728;2024-03-25T00:51:26;22.90;;;5.43;;
71622;SDS011;59473;53.214;5.728;2024-03-25T00:53:51;16.27;;;4.70;;
71622;SDS011;59473;53.214;5.728;2024-03-25T00:56:16;17.73;;;6.20;;
71622;SDS011;59473;53.214;5.728;2024-03-25T00:58:41;15.17;;;5.20;;
71622;SDS011;59473;53.214;5.728;2024-03-25T01:01:06;11.67;;;4.60;;
71622;SDS011;59473;53.214;5.728;2024-03-25T01:03:32;13.37;;;4.67;;
71622;SDS011;59473;53.214;5.728;2024-03-25T01:05:57;12.73;;;4.30;;
71622;SDS011;59473;53.214;5.728;2024-03-25T01:08:22;12.87;;;4.17;;
71622;SDS011;59473;53.214;5.728;2024-03-25T01:10:47;14.17;;;4.63;;
71622;SDS011;59473;53.214;5.728;2024-03-25T01:13:13;18.37;;;5.00;;
71622;SDS011;59473;53.214;5.728;2024-03-25T01:15:38;13.37;;;4.37;;
71622;SDS011;59473;53.214;5.728;2024-03-25T01:18:03;13.37;;;4.07;;
71622;SDS011;59473;53.214;5.728;2024-03-25T01:20:28;18.23;;;4.37;;
71622;SDS011;59473;53.214;5.728;2024-03-25T01:22:54;18.23;;;4.80;;
71622;SDS011;59473;53.214;5.728;2024-03-25T01:25:19;17.63;;;4.70;;
71622;SDS011;59473;53.214;5.728;2024-03-25T01:27:45;14.23;;;4.20;;
71622;SDS011;59473;53.214;5.728;2024-03-25T01:30:10;15.70;;;5.10;;
71622;SDS011;59473;53.214;5.728;2024-03-25T01:32:35;17.40;;;4.90;;
71622;SDS011;59473;53.214;5.728;2024-03-25T01:35:01;14.97;;;4.57;;
71622;SDS011;59473;53.214;5.728;2024-03-25T01:37:26;16.83;;;5.07;;
71622;SDS011;59473;53.214;5.728;2024-03-25T01:39:51;13.37;;;5.20;;
71622;SDS011;59473;53.214;5.728;2024-03-25T01:42:16;15.90;;;4.90;;
71622;SDS011;59473;53.214;5.728;2024-03-25T01:44:42;19.30;;;4.80;;
71622;SDS011;59473;53.214;5.728;2024-03-25T01:47:07;14.23;;;4.33;;
71622;SDS011;59473;53.214;5.728;2024-03-25T01:49:32;16.83;;;4.63;;
71622;SDS011;59473;53.214;5.728;2024-03-25T01:51:57;13.90;;;4.73;;
71622;SDS011;59473;53.214;5.728;2024-03-25T01:54:23;17.60;;;4.68;;
71622;SDS011;59473;53.214;5.728;2024-03-25T01:56:48;16.87;;;4.73;;
71622;SDS011;59473;53.214;5.728;2024-03-25T01:59:15;15.97;;;4.10;;
71622;SDS011;59473;53.214;5.728;2024-03-25T02:01:41;17.67;;;4.93;;
71622;SDS011;59473;53.214;5.728;2024-03-25T02:04:07;17.77;;;5.28;;
71622;SDS011;59473;53.214;5.728;2024-03-25T02:06:33;14.27;;;5.50;;
71622;SDS011;59473;53.214;5.728;2024-03-25T02:09:00;20.35;;;5.10;;
71622;SDS011;59473;53.214;5.728;2024-03-25T02:11:26;13.45;;;5.30;;
71622;SDS011;59473;53.214;5.728;2024-03-25T02:13:52;14.07;;;4.70;;
71622;SDS011;59473;53.214;5.728;2024-03-25T02:16:18;15.40;;;4.33;;
71622;SDS011;59473;53.214;5.728;2024-03-25T02:18:43;14.33;;;4.43;;
71622;SDS011;59473;53.214;5.728;2024-03-25T02:21:08;14.83;;;4.70;;
71622;SDS011;59473;53.214;5.728;2024-03-25T02:23:33;16.83;;;5.23;;
71622;SDS011;59473;53.214;5.728;2024-03-25T02:25:59;21.25;;;6.57;;
71622;SDS011;59473;53.214;5.728;2024-03-25T02:28:25;15.00;;;4.27;;
71622;SDS011;59473;53.214;5.728;2024-03-25T02:30:50;13.67;;;4.57;;
71622;SDS011;59473;53.214;5.728;2024-03-25T02:33:15;14.23;;;4.17;;
71622;SDS011;59473;53.214;5.728;2024-03-25T02:35:40;13.83;;;3.90;;
71622;SDS011;59473;53.214;5.728;2024-03-25T02:38:06;20.43;;;4.13;;
71622;SDS011;59473;53.214;5.728;2024-03-25T02:40:32;13.68;;;4.22;;
71622;SDS011;59473;53.214;5.728;2024-03-25T02:42:58;15.37;;;4.50;;
71622;SDS011;59473;53.214;5.728;2024-03-25T02:45:23;14.63;;;4.50;;
71622;SDS011;59473;53.214;5.728;2024-03-25T02:47:49;13.37;;;4.30;;
71622;SDS011;59473;53.214;5.728;2024-03-25T02:50:15;16.87;;;4.70;;
71622;SDS011;59473;53.214;5.728;2024-03-25T02:52:40;18.30;;;4.17;;
71622;SDS011;59473;53.214;5.728;2024-03-25T02:55:05;12.73;;;4.43;;
71622;SDS011;59473;53.214;5.728;2024-03-25T02:57:31;14.88;;;4.75;;
71622;SDS011;59473;53.214;5.728;2024-03-25T02:59:56;45.17;;;6.10;;
71622;SDS011;59473;53.214;5.728;2024-03-25T03:02:21;19.50;;;5.00;;
71622;SDS011;59473;53.214;5.728;2024-03-25T03:04:47;13.63;;;4.07;;
71622;SDS011;59473;53.214;5.728;2024-03-25T03:07:12;17.93;;;4.20;;
71622;SDS011;59473;53.214;5.728;2024-03-25T03:09:37;14.77;;;3.60;;
71622;SDS011;59473;53.214;5.728;2024-03-25T03:12:02;12.33;;;5.30;;
71622;SDS011;59473;53.214;5.728;2024-03-25T03:14:28;21.37;;;5.03;;
71622;SDS011;59473;53.214;5.728;2024-03-25T03:16:53;14.73;;;3.80;;
71622;SDS011;59473;53.214;5.728;2024-03-25T03:19:20;14.27;;;4.25;;
71622;SDS011;59473;53.214;5.728;2024-03-25T03:21:45;15.90;;;4.67;;
71622;SDS011;59473;53.214;5.728;2024-03-25T03:24:10;20.40;;;5.60;;
71622;SDS011;59473;53.214;5.728;2024-03-25T03:26:35;11.50;;;4.17;;
71622;SDS011;59473;53.214;5.728;2024-03-25T03:29:00;11.57;;;3.87;;
71622;SDS011;59473;53.214;5.728;2024-03-25T03:31:26;13.98;;;3.78;;
71622;SDS011;59473;53.214;5.728;2024-03-25T03:33:51;17.55;;;5.10;;
71622;SDS011;59473;53.214;5.728;2024-03-25T03:36:21;12.70;;;5.00;;
71622;SDS011;59473;53.214;5.728;2024-03-25T03:38:47;11.93;;;3.97;;
71622;SDS011;59473;53.214;5.728;2024-03-25T03:41:12;14.90;;;3.70;;
71622;SDS011;59473;53.214;5.728;2024-03-25T03:43:37;15.57;;;4.47;;
71622;SDS011;59473;53.214;5.728;2024-03-25T03:46:02;14.53;;;4.47;;
71622;SDS011;59473;53.214;5.728;2024-03-25T03:48:28;14.30;;;3.80;;
71622;SDS011;59473;53.214;5.728;2024-03-25T03:50:53;17.93;;;4.63;;
71622;SDS011;59473;53.214;5.728;2024-03-25T03:53:19;12.43;;;4.63;;
71622;SDS011;59473;53.214;5.728;2024-03-25T03:55:54;18.30;;;5.13;;
71622;SDS011;59473;53.214;5.728;2024-03-25T03:58:19;17.75;;;5.07;;
71622;SDS011;59473;53.214;5.728;2024-03-25T04:00:44;15.93;;;4.57;;
71622;SDS011;59473;53.214;5.728;2024-03-25T04:03:10;14.47;;;4.87;;
71622;SDS011;59473;53.214;5.728;2024-03-25T04:05:35;17.00;;;4.97;;
71622;SDS011;59473;53.214;5.728;2024-03-25T04:08:00;15.77;;;4.93;;
71622;SDS011;59473;53.214;5.728;2024-03-25T04:10:26;14.97;;;4.73;;
71622;SDS011;59473;53.214;5.728;2024-03-25T04:12:51;14.27;;;4.30;;
71622;SDS011;59473;53.214;5.728;2024-03-25T04:15:17;17.07;;;4.50;;
71622;SDS011;59473;53.214;5.728;2024-03-25T04:17:45;12.37;;;3.80;;
71622;SDS011;59473;53.214;5.728;2024-03-25T04:20:12;14.15;;;4.53;;
71622;SDS011;59473;53.214;5.728;2024-03-25T04:22:40;12.43;;;4.90;;
71622;SDS011;59473;53.214;5.728;2024-03-25T04:25:06;11.98;;;4.30;;
71622;SDS011;59473;53.214;5.728;2024-03-25T04:27:32;11.67;;;3.63;;
71622;SDS011;59473;53.214;5.728;2024-03-25T04:29:57;13.07;;;3.73;;
71622;SDS011;59473;53.214;5.728;2024-03-25T04:32:23;11.23;;;4.50;;
71622;SDS011;59473;53.214;5.728;2024-03-25T04:34:48;15.10;;;4.33;;
71622;SDS011;59473;53.214;5.728;2024-03-25T04:37:13;12.67;;;3.93;;
71622;SDS011;59473;53.214;5.728;2024-03-25T04:39:39;9.95;;;4.25;;
71622;SDS011;59473;53.214;5.728;2024-03-25T04:42:05;10.40;;;4.07;;
71622;SDS011;59473;53.214;5.728;2024-03-25T04:44:30;10.05;;;3.88;;
71622;SDS011;59473;53.214;5.728;2024-03-25T04:46:55;7.13;;;3.87;;
71622;SDS011;59473;53.214;5.728;2024-03-25T04:49:21;11.67;;;4.20;;
71622;SDS011;59473;53.214;5.728;2024-03-25T04:51:46;7.40;;;3.93;;
71622;SDS011;59473;53.214;5.728;2024-03-25T04:54:11;7.43;;;3.83;;
71622;SDS011;59473;53.214;5.728;2024-03-25T04:56:37;9.73;;;3.77;;
71622;SDS011;59473;53.214;5.728;2024-03-25T04:59:02;10.67;;;3.77;;
71622;SDS011;59473;53.214;5.728;2024-03-25T05:01:27;8.93;;;3.43;;
71622;SDS011;59473;53.214;5.728;2024-03-25T05:03:53;8.67;;;4.20;;
71622;SDS011;59473;53.214;5.728;2024-03-25T05:06:18;8.30;;;4.70;;
71622;SDS011;59473;53.214;5.728;2024-03-25T05:08:43;6.87;;;3.67;;
71622;SDS011;59473;53.214;5.728;2024-03-25T05:11:09;11.50;;;3.70;;
71622;SDS011;59473;53.214;5.728;2024-03-25T05:13:34;9.30;;;3.57;;
71622;SDS011;59473;53.214;5.728;2024-03-25T05:15:59;8.63;;;4.00;;
71622;SDS011;59473;53.214;5.728;2024-03-25T05:18:25;6.37;;;3.90;;
71622;SDS011;59473;53.214;5.728;2024-03-25T05:20:50;10.07;;;4.00;;
71622;SDS011;59473;53.214;5.728;2024-03-25T05:23:15;13.33;;;4.50;;
71622;SDS011;59473;53.214;5.728;2024-03-25T05:25:40;9.10;;;4.07;;
71622;SDS011;59473;53.214;5.728;2024-03-25T05:28:05;13.63;;;4.13;;
71622;SDS011;59473;53.214;5.728;2024-03-25T05:30:32;12.32;;;4.40;;
71622;SDS011;59473;53.214;5.728;2024-03-25T05:32:57;8.97;;;4.50;;
71622;SDS011;59473;53.214;5.728;2024-03-25T05:35:22;7.90;;;4.27;;
71622;SDS011;59473;53.214;5.728;2024-03-25T05:37:48;8.53;;;4.13;;
71622;SDS011;59473;53.214;5.728;2024-03-25T05:40:13;11.80;;;4.33;;
71622;SDS011;59473;53.214;5.728;2024-03-25T05:42:40;9.60;;;4.00;;
71622;SDS011;59473;53.214;5.728;2024-03-25T05:45:05;8.10;;;3.70;;
71622;SDS011;59473;53.214;5.728;2024-03-25T05:47:31;7.47;;;4.20;;
71622;SDS011;59473;53.214;5.728;2024-03-25T05:49:56;13.87;;;4.40;;
71622;SDS011;59473;53.214;5.728;2024-03-25T05:52:21;8.13;;;3.60;;
71622;SDS011;59473;53.214;5.728;2024-03-25T05:54:47;7.20;;;3.47;;
71622;SDS011;59473;53.214;5.728;2024-03-25T05:57:12;12.07;;;4.43;;
71622;SDS011;59473;53.214;5.728;2024-03-25T05:59:37;15.97;;;4.37;;
71622;SDS011;59473;53.214;5.728;2024-03-25T06:02:02;7.83;;;4.00;;
71622;SDS011;59473;53.214;5.728;2024-03-25T06:04:28;9.23;;;4.20;;
71622;SDS011;59473;53.214;5.728;2024-03-25T06:06:53;12.30;;;3.93;;
71622;SDS011;59473;53.214;5.728;2024-03-25T06:09:18;9.07;;;3.83;;
71622;SDS011;59473;53.214;5.728;2024-03-25T06:11:43;15.43;;;4.07;;
71622;SDS011;59473;53.214;5.728;2024-03-25T06:14:08;14.50;;;3.83;;
71622;SDS011;59473;53.214;5.728;2024-03-25T06:16:34;12.23;;;4.23;;
71622;SDS011;59473;53.214;5.728;2024-03-25T06:18:59;10.13;;;4.07;;
71622;SDS011;59473;53.214;5.728;2024-03-25T06:21:24;11.70;;;3.50;;
71622;SDS011;59473;53.214;5.728;2024-03-25T06:23:49;11.07;;;3.87;;
71622;SDS011;59473;53.214;5.728;2024-03-25T06:26:14;11.90;;;4.20;;
71622;SDS011;59473;53.214;5.728;2024-03-25T06:28:40;14.20;;;4.27;;
71622;SDS011;59473;53.214;5.728;2024-03-25T06:31:05;14.80;;;4.30;;
71622;SDS011;59473;53.214;5.728;2024-03-25T06:33:49;12.93;;;4.23;;
71622;SDS011;59473;53.214;5.728;2024-03-25T06:36:33;11.80;;;4.60;;
71622;SDS011;59473;53.214;5.728;2024-03-25T06:39:00;11.70;;;5.05;;
71622;SDS011;59473;53.214;5.728;2024-03-25T06:41:25;12.60;;;4.53;;
71622;SDS011;59473;53.214;5.728;2024-03-25T06:43:50;16.20;;;4.40;;
71622;SDS011;59473;53.214;5.728;2024-03-25T06:46:16;11.07;;;4.00;;
71622;SDS011;59473;53.214;5.728;2024-03-25T06:48:41;13.77;;;4.93;;
71622;SDS011;59473;53.214;5.728;2024-03-25T06:51:06;14.43;;;5.27;;
71622;SDS011;59473;53.214;5.728;2024-03-25T06:53:31;9.80;;;4.13;;
71622;SDS011;59473;53.214;5.728;2024-03-25T06:55:57;11.80;;;4.20;;
71622;SDS011;59473;53.214;5.728;2024-03-25T06:58:23;12.07;;;4.15;;
71622;SDS011;59473;53.214;5.728;2024-03-25T07:00:51;12.18;;;3.60;;
71622;SDS011;59473;53.214;5.728;2024-03-25T07:03:16;13.47;;;3.73;;
71622;SDS011;59473;53.214;5.728;2024-03-25T07:05:44;9.95;;;3.13;;
71622;SDS011;59473;53.214;5.728;2024-03-25T07:08:09;7.33;;;3.27;;
71622;SDS011;59473;53.214;5.728;2024-03-25T07:10:34;14.77;;;4.28;;
71622;SDS011;59473;53.214;5.728;2024-03-25T07:12:59;9.13;;;3.77;;
71622;SDS011;59473;53.214;5.728;2024-03-25T07:15:24;9.25;;;2.83;;
71622;SDS011;59473;53.214;5.728;2024-03-25T07:20:55;8.75;;;3.80;;
71622;SDS011;59473;53.214;5.728;2024-03-25T07:23:21;13.13;;;3.93;;
71622;SDS011;59473;53.214;5.728;2024-03-25T07:25:46;9.17;;;3.10;;
71622;SDS011;59473;53.214;5.728;2024-03-25T07:28:11;10.90;;;3.50;;
71622;SDS011;59473;53.214;5.728;2024-03-25T07:30:36;9.70;;;3.43;;
71622;SDS011;59473;53.214;5.728;2024-03-25T07:33:01;11.60;;;3.57;;
71622;SDS011;59473;53.214;5.728;2024-03-25T07:35:27;11.73;;;3.70;;
71622;SDS011;59473;53.214;5.728;2024-03-25T07:37:52;12.13;;;3.60;;
71622;SDS011;59473;53.214;5.728;2024-03-25T07:40:17;11.60;;;3.40;;
71622;SDS011;59473;53.214;5.728;2024-03-25T07:42:43;12.02;;;3.47;;
71622;SDS011;59473;53.214;5.728;2024-03-25T07:45:08;11.37;;;3.37;;
71622;SDS011;59473;53.214;5.728;2024-03-25T07:47:34;17.10;;;3.63;;
71622;SDS011;59473;53.214;5.728;2024-03-25T07:49:59;9.77;;;3.10;;
71622;SDS011;59473;53.214;5.728;2024-03-25T07:52:25;14.03;;;3.73;;
71622;SDS011;59473;53.214;5.728;2024-03-25T07:54:50;17.10;;;4.57;;
71622;SDS011;59473;53.214;5.728;2024-03-25T07:57:16;12.03;;;3.53;;
71622;SDS011;59473;53.214;5.728;2024-03-25T07:59:41;12.90;;;3.73;;
71622;SDS011;59473;53.214;5.728;2024-03-25T08:02:06;15.90;;;3.40;;
71622;SDS011;59473;53.214;5.728;2024-03-25T08:04:31;14.40;;;3.27;;
71622;SDS011;59473;53.214;5.728;2024-03-25T08:06:57;11.63;;;3.80;;
71622;SDS011;59473;53.214;5.728;2024-03-25T08:09:22;12.07;;;3.30;;
71622;SDS011;59473;53.214;5.728;2024-03-25T08:11:47;12.17;;;3.00;;
71622;SDS011;59473;53.214;5.728;2024-03-25T08:14:12;20.27;;;3.87;;
71622;SDS011;59473;53.214;5.728;2024-03-25T08:16:37;10.53;;;3.50;;
71622;SDS011;59473;53.214;5.728;2024-03-25T08:19:03;13.32;;;3.30;;
71622;SDS011;59473;53.214;5.728;2024-03-25T08:21:28;11.73;;;3.33;;
71622;SDS011;59473;53.214;5.728;2024-03-25T08:23:54;9.13;;;3.40;;
71622;SDS011;59473;53.214;5.728;2024-03-25T08:26:19;11.13;;;3.37;;
71622;SDS011;59473;53.214;5.728;2024-03-25T08:28:44;15.20;;;4.07;;
71622;SDS011;59473;53.214;5.728;2024-03-25T08:31:10;10.80;;;2.83;;
71622;SDS011;59473;53.214;5.728;2024-03-25T08:33:35;9.50;;;3.70;;
71622;SDS011;59473;53.214;5.728;2024-03-25T08:36:00;13.00;;;3.80;;
71622;SDS011;59473;53.214;5.728;2024-03-25T08:38:26;10.80;;;2.83;;
71622;SDS011;59473;53.214;5.728;2024-03-25T08:40:51;15.93;;;4.03;;
71622;SDS011;59473;53.214;5.728;2024-03-25T08:43:16;10.97;;;3.77;;
71622;SDS011;59473;53.214;5.728;2024-03-25T08:45:42;15.03;;;3.87;;
71622;SDS011;59473;53.214;5.728;2024-03-25T08:48:07;19.17;;;3.60;;
71622;SDS011;59473;53.214;5.728;2024-03-25T08:50:32;15.07;;;4.23;;
71622;SDS011;59473;53.214;5.728;2024-03-25T08:52:58;17.20;;;3.93;;
71622;SDS011;59473;53.214;5.728;2024-03-25T08:55:23;13.77;;;3.73;;
71622;SDS011;59473;53.214;5.728;2024-03-25T08:57:48;15.68;;;3.55;;
71622;SDS011;59473;53.214;5.728;2024-03-25T09:00:14;11.17;;;2.97;;
71622;SDS011;59473;53.214;5.728;2024-03-25T09:02:39;21.77;;;4.53;;
71622;SDS011;59473;53.214;5.728;2024-03-25T09:05:05;13.33;;;3.27;;
71622;SDS011;59473;53.214;5.728;2024-03-25T09:07:31;22.33;;;4.50;;
71622;SDS011;59473;53.214;5.728;2024-03-25T09:09:56;14.98;;;3.38;;
71622;SDS011;59473;53.214;5.728;2024-03-25T09:12:40;18.63;;;4.95;;
71622;SDS011;59473;53.214;5.728;2024-03-25T09:15:05;20.30;;;4.47;;
71622;SDS011;59473;53.214;5.728;2024-03-25T09:17:31;15.00;;;3.30;;
71622;SDS011;59473;53.214;5.728;2024-03-25T09:19:56;13.40;;;4.17;;
71622;SDS011;59473;53.214;5.728;2024-03-25T09:22:21;14.73;;;3.80;;
71622;SDS011;59473;53.214;5.728;2024-03-25T09:24:53;13.90;;;3.38;;
71622;SDS011;59473;53.214;5.728;2024-03-25T09:27:18;15.27;;;3.70;;
71622;SDS011;59473;53.214;5.728;2024-03-25T09:29:44;14.30;;;3.30;;
71622;SDS011;59473;53.214;5.728;2024-03-25T09:32:09;17.00;;;3.57;;
71622;SDS011;59473;53.214;5.728;2024-03-25T09:34:34;13.10;;;3.37;;
71622;SDS011;59473;53.214;5.728;2024-03-25T09:36:59;15.20;;;3.30;;
71622;SDS011;59473;53.214;5.728;2024-03-25T09:39:24;12.93;;;3.33;;
71622;SDS011;59473;53.214;5.728;2024-03-25T09:41:50;17.00;;;4.23;;
71622;SDS011;59473;53.214;5.728;2024-03-25T09:44:19;8.15;;;3.47;;
71622;SDS011;59473;53.214;5.728;2024-03-25T09:46:46;12.20;;;3.53;;
71622;SDS011;59473;53.214;5.728;2024-03-25T09:49:11;14.83;;;3.70;;
71622;SDS011;59473;53.214;5.728;2024-03-25T09:51:37;17.23;;;3.47;;
71622;SDS011;59473;53.214;5.728;2024-03-25T09:54:02;13.83;;;3.33;;
71622;SDS011;59473;53.214;5.728;2024-03-25T09:56:29;10.60;;;3.00;;
71622;SDS011;59473;53.214;5.728;2024-03-25T09:58:54;13.37;;;3.00;;
71622;SDS011;59473;53.214;5.728;2024-03-25T10:01:19;9.57;;;2.80;;
71622;SDS011;59473;53.214;5.728;2024-03-25T10:03:45;18.90;;;3.80;;
71622;SDS011;59473;53.214;5.728;2024-03-25T10:06:10;12.23;;;3.85;;
71622;SDS011;59473;53.214;5.728;2024-03-25T10:08:37;20.10;;;4.20;;
71622;SDS011;59473;53.214;5.728;2024-03-25T10:11:02;17.05;;;3.80;;
71622;SDS011;59473;53.214;5.728;2024-03-25T10:13:27;18.63;;;4.23;;
71622;SDS011;59473;53.214;5.728;2024-03-25T10:15:52;13.13;;;3.90;;
71622;SDS011;59473;53.214;5.728;2024-03-25T10:18:19;15.57;;;3.95;;
71622;SDS011;59473;53.214;5.728;2024-03-25T10:20:51;15.03;;;3.80;;
71622;SDS011;59473;53.214;5.728;2024-03-25T10:23:19;15.30;;;3.55;;
71622;SDS011;59473;53.214;5.728;2024-03-25T10:25:47;16.67;;;3.80;;
71622;SDS011;59473;53.214;5.728;2024-03-25T10:28:12;15.40;;;3.30;;
71622;SDS011;59473;53.214;5.728;2024-03-25T10:30:38;18.23;;;3.57;;
71622;SDS011;59473;53.214;5.728;2024-03-25T10:33:04;13.77;;;3.53;;
71622;SDS011;59473;53.214;5.728;2024-03-25T10:35:30;18.52;;;3.75;;
71622;SDS011;59473;53.214;5.728;2024-03-25T10:37:57;15.52;;;3.35;;
71622;SDS011;59473;53.214;5.728;2024-03-25T10:40:24;17.33;;;3.70;;
71622;SDS011;59473;53.214;5.728;2024-03-25T10:42:52;13.52;;;3.15;;
71622;SDS011;59473;53.214;5.728;2024-03-25T10:45:19;14.87;;;3.03;;
71622;SDS011;59473;53.214;5.728;2024-03-25T10:47:44;17.80;;;3.38;;
71622;SDS011;59473;53.214;5.728;2024-03-25T10:50:09;12.53;;;3.27;;
71622;SDS011;59473;53.214;5.728;2024-03-25T10:52:38;15.37;;;3.40;;
71622;SDS011;59473;53.214;5.728;2024-03-25T10:55:04;15.02;;;3.45;;
71622;SDS011;59473;53.214;5.728;2024-03-25T10:57:29;13.20;;;4.27;;
71622;SDS011;59473;53.214;5.728;2024-03-25T10:59:55;12.45;;;3.25;;
71622;SDS011;59473;53.214;5.728;2024-03-25T11:02:21;18.03;;;3.33;;
71622;SDS011;59473;53.214;5.728;2024-03-25T11:04:46;13.57;;;2.90;;
71622;SDS011;59473;53.214;5.728;2024-03-25T11:07:13;12.00;;;2.88;;
71622;SDS011;59473;53.214;5.728;2024-03-25T11:09:38;13.30;;;3.28;;
71622;SDS011;59473;53.214;5.728;2024-03-25T11:12:04;15.33;;;3.70;;
71622;SDS011;59473;53.214;5.728;2024-03-25T11:14:29;15.05;;;2.95;;
71622;SDS011;59473;53.214;5.728;2024-03-25T11:16:57;11.97;;;3.17;;
71622;SDS011;59473;53.214;5.728;2024-03-25T11:19:25;19.25;;;4.28;;
71622;SDS011;59473;53.214;5.728;2024-03-25T11:21:50;15.35;;;3.85;;
71622;SDS011;59473;53.214;5.728;2024-03-25T11:24:15;14.60;;;3.33;;
71622;SDS011;59473;53.214;5.728;2024-03-25T11:26:51;11.73;;;2.97;;
71622;SDS011;59473;53.214;5.728;2024-03-25T11:29:18;10.67;;;2.87;;
71622;SDS011;59473;53.214;5.728;2024-03-25T11:31:43;12.77;;;3.17;;
71622;SDS011;59473;53.214;5.728;2024-03-25T11:34:09;13.93;;;3.45;;
71622;SDS011;59473;53.214;5.728;2024-03-25T11:36:34;12.75;;;3.35;;
71622;SDS011;59473;53.214;5.728;2024-03-25T11:39:00;11.13;;;3.03;;
71622;SDS011;59473;53.214;5.728;2024-03-25T11:41:29;10.02;;;2.97;;
71622;SDS011;59473;53.214;5.728;2024-03-25T11:43:54;11.50;;;3.03;;
71622;SDS011;59473;53.214;5.728;2024-03-25T11:46:24;9.10;;;2.67;;
71622;SDS011;59473;53.214;5.728;2024-03-25T11:48:50;18.13;;;4.38;;
71622;SDS011;59473;53.214;5.728;2024-03-25T11:51:18;7.10;;;2.42;;
71622;SDS011;59473;53.214;5.728;2024-03-25T11:53:44;12.37;;;2.60;;
71622;SDS011;59473;53.214;5.728;2024-03-25T11:56:10;10.87;;;2.40;;
71622;SDS011;59473;53.214;5.728;2024-03-25T11:58:36;9.68;;;2.38;;
71622;SDS011;59473;53.214;5.728;2024-03-25T12:01:01;18.97;;;3.23;;
71622;SDS011;59473;53.214;5.728;2024-03-25T12:03:26;9.73;;;2.28;;
71622;SDS011;59473;53.214;5.728;2024-03-25T12:05:52;9.27;;;2.80;;
71622;SDS011;59473;53.214;5.728;2024-03-25T12:08:17;12.87;;;2.40;;
71622;SDS011;59473;53.214;5.728;2024-03-25T12:10:42;11.23;;;2.53;;
71622;SDS011;59473;53.214;5.728;2024-03-25T12:13:26;10.37;;;2.67;;
71622;SDS011;59473;53.214;5.728;2024-03-25T12:15:52;11.63;;;2.58;;
71622;SDS011;59473;53.214;5.728;2024-03-25T12:18:18;10.23;;;2.67;;
71622;SDS011;59473;53.214;5.728;2024-03-25T12:20:46;7.85;;;2.45;;
71622;SDS011;59473;53.214;5.728;2024-03-25T12:23:11;9.50;;;2.80;;
71622;SDS011;59473;53.214;5.728;2024-03-25T12:25:37;10.90;;;2.77;;
71622;SDS011;59473;53.214;5.728;2024-03-25T12:28:07;11.33;;;2.50;;
71622;SDS011;59473;53.214;5.728;2024-03-25T12:30:32;11.85;;;1.88;;
71622;SDS011;59473;53.214;5.728;2024-03-25T12:32:58;12.83;;;2.47;;
71622;SDS011;59473;53.214;5.728;2024-03-25T12:35:23;11.73;;;2.80;;
71622;SDS011;59473;53.214;5.728;2024-03-25T12:37:48;10.50;;;2.43;;
71622;SDS011;59473;53.214;5.728;2024-03-25T12:40:27;12.07;;;2.78;;
71622;SDS011;59473;53.214;5.728;2024-03-25T12:42:53;12.43;;;2.63;;
71622;SDS011;59473;53.214;5.728;2024-03-25T12:45:19;13.98;;;2.65;;
71622;SDS011;59473;53.214;5.728;2024-03-25T12:47:45;11.60;;;2.77;;
71622;SDS011;59473;53.214;5.728;2024-03-25T12:50:10;12.52;;;2.72;;
71622;SDS011;59473;53.214;5.728;2024-03-25T12:52:35;7.45;;;1.88;;
71622;SDS011;59473;53.214;5.728;2024-03-25T12:55:01;14.45;;;2.58;;
71622;SDS011;59473;53.214;5.728;2024-03-25T12:57:26;11.90;;;2.53;;
71622;SDS011;59473;53.214;5.728;2024-03-25T12:59:51;6.77;;;1.90;;
71622;SDS011;59473;53.214;5.728;2024-03-25T13:02:17;8.40;;;2.20;;
71622;SDS011;59473;53.214;5.728;2024-03-25T13:04:44;9.75;;;2.17;;
71622;SDS011;59473;53.214;5.728;2024-03-25T13:07:09;8.07;;;2.00;;
71622;SDS011;59473;53.214;5.728;2024-03-25T13:09:35;9.45;;;2.20;;
71622;SDS011;59473;53.214;5.728;2024-03-25T13:12:00;9.57;;;2.60;;
71622;SDS011;59473;53.214;5.728;2024-03-25T13:14:25;7.37;;;2.10;;
71622;SDS011;59473;53.214;5.728;2024-03-25T13:16:51;9.77;;;2.17;;
71622;SDS011;59473;53.214;5.728;2024-03-25T13:19:16;10.90;;;2.43;;
71622;SDS011;59473;53.214;5.728;2024-03-25T13:21:41;8.33;;;2.40;;
71622;SDS011;59473;53.214;5.728;2024-03-25T13:24:07;9.43;;;2.27;;
71622;SDS011;59473;53.214;5.728;2024-03-25T13:26:32;9.40;;;2.03;;
71622;SDS011;59473;53.214;5.728;2024-03-25T13:28:57;12.33;;;2.43;;
71622;SDS011;59473;53.214;5.728;2024-03-25T13:31:23;8.77;;;2.40;;
71622;SDS011;59473;53.214;5.728;2024-03-25T13:33:49;6.70;;;2.30;;
71622;SDS011;59473;53.214;5.728;2024-03-25T13:36:14;12.73;;;2.33;;
71622;SDS011;59473;53.214;5.728;2024-03-25T13:38:39;8.33;;;2.57;;
71622;SDS011;59473;53.214;5.728;2024-03-25T13:41:04;8.77;;;2.17;;
71622;SDS011;59473;53.214;5.728;2024-03-25T13:43:31;10.38;;;2.22;;
71622;SDS011;59473;53.214;5.728;2024-03-25T13:45:56;10.90;;;2.10;;
71622;SDS011;59473;53.214;5.728;2024-03-25T13:48:21;6.13;;;2.23;;
71622;SDS011;59473;53.214;5.728;2024-03-25T13:50:47;9.67;;;2.00;;
71622;SDS011;59473;53.214;5.728;2024-03-25T13:53:13;13.75;;;1.98;;
71622;SDS011;59473;53.214;5.728;2024-03-25T13:55:38;7.60;;;2.43;;
71622;SDS011;59473;53.214;5.728;2024-03-25T13:58:03;9.83;;;2.43;;
71622;SDS011;59473;53.214;5.728;2024-03-25T14:00:30;8.80;;;2.15;;
71622;SDS011;59473;53.214;5.728;2024-03-25T14:02:55;10.03;;;2.33;;
71622;SDS011;59473;53.214;5.728;2024-03-25T14:05:21;8.50;;;2.00;;
71622;SDS011;59473;53.214;5.728;2024-03-25T14:07:48;11.68;;;2.08;;
71622;SDS011;59473;53.214;5.728;2024-03-25T14:10:13;11.10;;;2.00;;
71622;SDS011;59473;53.214;5.728;2024-03-25T14:12:38;5.97;;;1.80;;
71622;SDS011;59473;53.214;5.728;2024-03-25T14:15:04;5.13;;;1.80;;
71622;SDS011;59473;53.214;5.728;2024-03-25T14:17:29;7.70;;;2.27;;
71622;SDS011;59473;53.214;5.728;2024-03-25T14:19:55;8.40;;;2.33;;
71622;SDS011;59473;53.214;5.728;2024-03-25T14:22:21;6.80;;;2.05;;
71622;SDS011;59473;53.214;5.728;2024-03-25T14:24:46;8.40;;;2.80;;
71622;SDS011;59473;53.214;5.728;2024-03-25T14:27:12;9.73;;;2.10;;
71622;SDS011;59473;53.214;5.728;2024-03-25T14:29:37;6.88;;;1.70;;
71622;SDS011;59473;53.214;5.728;2024-03-25T14:32:02;12.10;;;2.70;;